Time;durP1;ratioP1;P1;durP2;ratioP2;P2;SDS_P1;SDS_P2;PMS_P1;PMS_P2;Temp;Humidity;BMP_temperature;BMP_pressure;BME280_temperature;BME280_humidity;BME280_pressure;Samples;Min_cycle;Max_cycle;Signal;HPM_P1;HPM_P2
2022/02/11 00:01:08;;;;;;;24.70;23.27;;;7.90;78.40;;;;;;5095800;28;20766;-72
2022/02/11 00:06:38;;;;;;;27.50;25.80;;;7.80;78.50;;;;;;5095897;28;20195;-72
2022/02/11 00:09:05;;;;;;;25.60;23.90;;;7.80;78.70;;;;;;5095685;28;20258;-72
2022/02/11 00:11:35;;;;;;;25.17;23.67;;;7.80;79.40;;;;;;5095527;28;20255;-72
2022/02/11 00:14:04;;;;;;;26.75;24.90;;;7.90;80.00;;;;;;5095763;28;20285;-73
2022/02/11 00:16:31;;;;;;;25.25;23.55;;;7.90;80.00;;;;;;5095598;28;20206;-72
2022/02/11 00:19:00;;;;;;;25.30;23.60;;;7.90;79.50;;;;;;5095507;28;20187;-73
2022/02/11 00:21:28;;;;;;;25.42;23.85;;;7.90;78.40;;;;;;5095406;28;20280;-72
2022/02/11 00:23:56;;;;;;;26.10;24.58;;;7.80;78.50;;;;;;5095390;28;20257;-73
2022/02/11 00:26:28;;;;;;;24.65;23.13;;;7.80;78.20;;;;;;5095560;28;20201;-73
2022/02/11 00:29:49;;;;;;;26.27;24.67;;;7.80;78.40;;;;;;5095366;28;20306;-73
2022/02/11 00:32:12;;;;;;;24.80;22.95;;;7.80;77.90;;;;;;5095082;28;20316;-73
2022/02/11 00:34:45;;;;;;;25.10;23.27;;;7.80;77.60;;;;;;5094686;28;20706;-73
2022/02/11 00:37:17;;;;;;;24.30;22.80;;;7.90;77.30;;;;;;5095271;28;20195;-73
2022/02/11 00:45:49;;;;;;;24.90;23.42;;;8.00;77.30;;;;;;5027708;28;20230;-73
2022/02/11 01:02:23;;;;;;;26.42;24.80;;;7.80;77.90;;;;;;5094811;28;20275;-73
2022/02/11 01:04:50;;;;;;;25.10;23.50;;;7.90;77.50;;;;;;5094619;28;20205;-73
2022/02/11 01:07:18;;;;;;;25.70;24.20;;;7.90;77.40;;;;;;5094601;28;20205;-73
2022/02/11 01:09:45;;;;;;;27.30;25.17;;;7.80;77.30;;;;;;5094384;28;20713;-72
2022/02/11 01:12:12;;;;;;;25.90;24.30;;;7.80;77.70;;;;;;5094563;28;20223;-73
2022/02/11 01:14:46;;;;;;;26.60;24.67;;;7.70;77.90;;;;;;5094497;28;20233;-73
2022/02/11 01:17:17;;;;;;;27.08;25.08;;;7.60;78.40;;;;;;5094450;28;20199;-73
2022/02/11 01:19:54;;;;;;;26.33;24.73;;;7.60;78.20;;;;;;5094071;28;20304;-72
2022/02/11 01:22:35;;;;;;;26.50;24.90;;;7.60;77.90;;;;;;5094535;28;20195;-72
2022/02/11 01:25:28;;;;;;;24.77;23.20;;;7.50;78.30;;;;;;5094591;28;20229;-72
2022/02/11 01:28:03;;;;;;;25.25;23.63;;;7.50;78.00;;;;;;5094346;28;20289;-72
2022/02/11 01:33:34;;;;;;;25.15;23.55;;;7.40;77.40;;;;;;5094448;28;20569;-72
2022/02/11 01:36:12;;;;;;;24.83;23.30;;;7.60;77.20;;;;;;5094493;28;20566;-73
2022/02/11 01:38:56;;;;;;;24.85;23.25;;;7.60;76.70;;;;;;5094008;28;20298;-73
2022/02/11 01:44:35;;;;;;;25.58;23.83;;;7.50;76.90;;;;;;5094085;28;20193;-73
2022/02/11 01:47:52;;;;;;;24.67;23.02;;;7.70;76.30;;;;;;5092881;28;20222;-73
2022/02/11 01:50:39;;;;;;;25.30;23.67;;;7.80;76.80;;;;;;5093251;28;20221;-72
2022/02/11 01:53:17;;;;;;;25.30;23.83;;;7.70;76.60;;;;;;5093756;28;20191;-72
2022/02/11 02:01:50;;;;;;;24.90;23.40;;;7.80;76.10;;;;;;5093452;28;20271;-73
2022/02/11 02:24:03;;;;;;;24.55;23.05;;;7.20;75.80;;;;;;5093183;28;20187;-73
2022/02/11 02:26:48;;;;;;;23.35;22.05;;;7.20;76.00;;;;;;5093284;28;20269;-73
2022/02/11 02:35:11;;;;;;;23.35;21.85;;;7.40;76.40;;;;;;5093047;28;20333;-73
2022/02/11 02:38:00;;;;;;;23.38;21.90;;;7.30;76.40;;;;;;5093207;28;20229;-73
2022/02/11 02:57:19;;;;;;;23.50;22.10;;;7.40;78.40;;;;;;5092499;28;20197;-73
2022/02/11 03:50:16;;;;;;;19.65;18.65;;;5.70;89.20;;;;;;5091988;28;20221;-72
2022/02/11 03:56:01;;;;;;;23.13;21.83;;;5.40;89.20;;;;;;5092301;28;20677;-72
2022/02/11 04:27:08;;;;;;;23.15;21.85;;;3.60;93.20;;;;;;5073861;28;20214;-73
2022/02/11 05:00:00;;;;;;;20.85;19.65;;;3.30;93.30;;;;;;5094744;28;20191;-72
2022/02/11 05:02:30;;;;;;;19.85;18.90;;;3.30;93.40;;;;;;5094721;28;20238;-72
2022/02/11 05:04:57;;;;;;;22.17;20.98;;;3.50;93.20;;;;;;5094450;28;20261;-72
2022/02/11 05:07:24;;;;;;;21.45;20.35;;;3.50;92.60;;;;;;5094573;28;20731;-73
2022/02/11 05:09:51;;;;;;;19.92;18.92;;;3.50;92.00;;;;;;5094510;28;20230;-72
2022/02/11 05:12:19;;;;;;;20.90;19.80;;;3.60;92.20;;;;;;5094681;28;20199;-72
2022/02/11 05:14:46;;;;;;;21.35;20.25;;;3.60;91.90;;;;;;5094559;28;20569;-73
2022/02/11 05:17:13;;;;;;;21.52;20.42;;;3.60;91.90;;;;;;5094502;28;20201;-72
2022/02/11 05:19:40;;;;;;;21.63;20.35;;;3.40;92.10;;;;;;5093770;28;20199;-72
2022/02/11 05:22:07;;;;;;;21.55;20.25;;;3.50;92.10;;;;;;5094567;28;20226;-73
2022/02/11 05:24:33;;;;;;;22.27;21.08;;;3.60;92.30;;;;;;5094248;28;20206;-72
2022/02/11 05:27:00;;;;;;;22.80;21.48;;;3.60;92.10;;;;;;5094239;28;20655;-72
2022/02/11 05:29:29;;;;;;;21.08;19.98;;;3.50;91.90;;;;;;5093952;28;20253;-72
2022/02/11 05:31:55;;;;;;;21.08;19.83;;;3.60;92.20;;;;;;5094080;28;20575;-73
2022/02/11 05:34:22;;;;;;;22.02;20.83;;;3.50;92.40;;;;;;5093760;28;20283;-73
2022/02/11 05:36:49;;;;;;;22.10;20.95;;;3.60;92.90;;;;;;5094175;28;20204;-72
2022/02/11 05:39:16;;;;;;;20.33;19.23;;;3.70;92.50;;;;;;5093821;28;20225;-73
2022/02/11 05:41:43;;;;;;;21.83;20.63;;;3.70;92.30;;;;;;5093983;28;20227;-73
2022/02/11 05:44:10;;;;;;;19.83;18.73;;;3.80;91.80;;;;;;5094094;28;20197;-73
2022/02/11 05:46:38;;;;;;;21.08;19.88;;;3.80;91.20;;;;;;5093828;28;20208;-73
2022/02/11 05:49:05;;;;;;;20.80;19.60;;;3.60;91.90;;;;;;5093865;28;20213;-73
2022/02/11 05:51:32;;;;;;;20.70;19.60;;;3.70;92.00;;;;;;5093367;28;20221;-72
2022/02/11 05:53:59;;;;;;;21.92;20.20;;;3.60;92.10;;;;;;5093758;28;20197;-72
2022/02/11 05:56:26;;;;;;;20.05;18.95;;;3.70;91.80;;;;;;5093877;28;20678;-72
2022/02/11 05:58:52;;;;;;;20.90;19.90;;;3.80;91.40;;;;;;5093794;28;20196;-73
2022/02/11 06:01:19;;;;;;;21.85;20.55;;;3.80;91.20;;;;;;5093452;28;20248;-73
2022/02/11 06:03:48;;;;;;;21.60;20.40;;;3.70;92.50;;;;;;5093535;28;20200;-72
2022/02/11 06:06:14;;;;;;;21.95;20.75;;;3.80;92.30;;;;;;5093421;28;20303;-72
2022/02/11 06:08:42;;;;;;;21.60;20.40;;;3.80;91.80;;;;;;5093462;28;20207;-72
2022/02/11 06:11:09;;;;;;;20.65;19.42;;;3.90;91.80;;;;;;5093213;28;20220;-72
2022/02/11 06:13:35;;;;;;;20.25;19.08;;;4.10;91.40;;;;;;5093464;28;20250;-72
2022/02/11 06:16:03;;;;;;;21.50;20.30;;;4.10;90.50;;;;;;5093171;28;20287;-72
2022/02/11 06:18:29;;;;;;;21.55;20.38;;;4.10;90.20;;;;;;5093348;28;20626;-72
2022/02/11 06:20:58;;;;;;;21.42;19.90;;;4.20;90.20;;;;;;5092911;28;20236;-72
2022/02/11 06:23:25;;;;;;;21.73;20.35;;;4.10;89.40;;;;;;5093494;28;20559;-72
2022/02/11 06:25:52;;;;;;;22.80;21.60;;;4.00;89.90;;;;;;5092991;28;20201;-72
2022/02/11 06:28:19;;;;;;;22.33;20.95;;;3.90;90.10;;;;;;5092981;28;20207;-72
2022/02/11 06:30:46;;;;;;;24.00;22.70;;;3.90;90.30;;;;;;5092795;28;20334;-72
2022/02/11 06:33:13;;;;;;;24.92;23.48;;;3.90;89.80;;;;;;5092506;28;20205;-72
2022/02/11 06:35:44;;;;;;;23.88;22.40;;;4.00;89.10;;;;;;5093211;28;20204;-72
2022/02/11 06:38:12;;;;;;;21.60;20.40;;;3.90;89.50;;;;;;5093000;28;20737;-72
2022/02/11 06:40:39;;;;;;;23.55;22.05;;;3.80;90.50;;;;;;5092560;28;20286;-72
2022/02/11 06:43:07;;;;;;;24.23;22.73;;;3.80;90.20;;;;;;5093040;28;20289;-72
2022/02/11 06:45:33;;;;;;;23.58;22.35;;;3.80;90.00;;;;;;5092853;28;20204;-72
2022/02/11 06:48:00;;;;;;;21.92;20.52;;;3.80;89.60;;;;;;5092833;28;20200;-72
2022/02/11 06:50:27;;;;;;;22.98;21.50;;;3.80;89.50;;;;;;5092633;28;20592;-72
2022/02/11 06:52:55;;;;;;;21.92;20.70;;;3.80;89.00;;;;;;5092776;28;20207;-72
2022/02/11 06:55:24;;;;;;;23.48;21.98;;;3.80;88.60;;;;;;5092624;28;20662;-72
2022/02/11 06:57:51;;;;;;;23.42;22.13;;;3.80;88.60;;;;;;5092658;28;20200;-72
2022/02/11 07:00:19;;;;;;;23.00;21.70;;;3.70;88.40;;;;;;5092470;28;20693;-72
2022/02/11 07:02:46;;;;;;;24.70;23.20;;;3.70;89.10;;;;;;5092761;28;20197;-72
2022/02/11 07:05:13;;;;;;;22.30;20.90;;;3.70;89.30;;;;;;5092427;28;20573;-72
2022/02/11 07:07:40;;;;;;;23.48;21.98;;;3.70;91.10;;;;;;5092581;28;20207;-72
2022/02/11 07:10:08;;;;;;;23.23;21.77;;;3.60;92.10;;;;;;5092149;28;20207;-72
2022/02/11 07:12:36;;;;;;;23.83;22.42;;;3.60;91.30;;;;;;5092524;28;20387;-72
2022/02/11 07:15:03;;;;;;;22.95;21.55;;;3.60;90.40;;;;;;5092455;28;20202;-72
2022/02/11 07:17:32;;;;;;;24.83;23.42;;;3.60;90.10;;;;;;5092546;28;20196;-72
2022/02/11 07:19:59;;;;;;;21.77;20.52;;;3.60;90.30;;;;;;5092070;28;20196;-72
2022/02/11 07:22:30;;;;;;;342.23;54.63;;;3.60;90.40;;;;;;5092652;28;20202;-72
2022/02/11 07:24:57;;;;;;;24.08;22.67;;;3.70;94.10;;;;;;5092329;28;20573;-72
2022/02/11 07:27:24;;;;;;;24.02;22.55;;;3.80;91.90;;;;;;5092375;28;20232;-72
2022/02/11 07:29:53;;;;;;;23.58;22.17;;;3.90;90.10;;;;;;5092203;28;20206;-72
2022/02/11 07:32:20;;;;;;;22.10;20.80;;;3.80;89.20;;;;;;5092346;28;20248;-72
2022/02/11 07:34:46;;;;;;;22.35;21.05;;;3.70;89.40;;;;;;5092460;28;20201;-72
2022/02/11 07:37:13;;;;;;;24.15;22.52;;;3.80;89.40;;;;;;5092382;28;20283;-72
2022/02/11 07:39:40;;;;;;;22.95;21.65;;;3.80;90.00;;;;;;5092203;28;20198;-71
2022/02/11 07:42:07;;;;;;;23.27;21.70;;;3.90;90.80;;;;;;5092176;28;20793;-71
2022/02/11 07:44:34;;;;;;;22.90;21.50;;;3.90;89.90;;;;;;5095629;28;20581;-72
2022/02/11 07:47:02;;;;;;;22.90;21.50;;;3.90;89.60;;;;;;5096294;28;20201;-72
2022/02/11 07:49:29;;;;;;;22.80;21.50;;;3.90;89.40;;;;;;5096105;28;20212;-72
2022/02/11 07:51:56;;;;;;;22.45;21.15;;;4.00;89.20;;;;;;5096020;28;20699;-72
2022/02/11 07:54:23;;;;;;;22.63;21.30;;;4.10;89.40;;;;;;5096124;28;20200;-72
2022/02/11 07:56:50;;;;;;;24.23;22.83;;;4.10;89.80;;;;;;5096051;28;20582;-72
2022/02/11 07:59:17;;;;;;;24.15;22.85;;;4.20;89.00;;;;;;5095861;28;20565;-72
2022/02/11 08:01:44;;;;;;;23.25;21.95;;;4.30;87.30;;;;;;5096361;28;20208;-72
2022/02/11 08:04:12;;;;;;;22.40;20.83;;;4.30;87.30;;;;;;5095875;28;20642;-72
2022/02/11 08:06:39;;;;;;;22.77;21.20;;;4.30;87.30;;;;;;5095752;28;20300;-72
2022/02/11 08:09:06;;;;;;;24.27;23.08;;;4.30;87.10;;;;;;5095967;28;20615;-72
2022/02/11 08:11:33;;;;;;;22.48;21.13;;;4.50;87.30;;;;;;5095669;28;20626;-72
2022/02/11 08:14:00;;;;;;;23.55;22.25;;;4.60;87.20;;;;;;5095728;28;20198;-72
2022/02/11 08:16:27;;;;;;;23.45;22.15;;;4.50;86.70;;;;;;5095583;28;20654;-72
2022/02/11 08:18:54;;;;;;;20.10;18.90;;;4.60;86.30;;;;;;5095292;28;20202;-72
2022/02/11 08:21:24;;;;;;;23.52;22.17;;;4.70;85.30;;;;;;5095491;28;20220;-72
2022/02/11 08:23:51;;;;;;;22.80;21.20;;;4.70;84.80;;;;;;5095537;28;20288;-72
2022/02/11 08:26:18;;;;;;;24.95;23.10;;;4.80;84.90;;;;;;5095300;28;20671;-72
2022/02/11 08:28:45;;;;;;;23.13;21.67;;;4.80;84.60;;;;;;5095510;28;20204;-72
2022/02/11 08:31:13;;;;;;;22.80;21.55;;;4.90;84.50;;;;;;5095165;28;20571;-72
2022/02/11 08:33:39;;;;;;;21.55;20.35;;;5.00;84.20;;;;;;5095496;28;20305;-72
2022/02/11 08:36:06;;;;;;;24.80;23.30;;;5.10;82.50;;;;;;5095672;28;20561;-72
2022/02/11 08:38:35;;;;;;;22.45;21.15;;;5.10;81.00;;;;;;5095661;28;20204;-72
2022/02/11 08:41:02;;;;;;;24.92;23.27;;;4.90;80.50;;;;;;5095262;28;20209;-72
2022/02/11 08:43:29;;;;;;;24.05;22.65;;;4.80;82.00;;;;;;5095393;28;20193;-72
2022/02/11 08:45:56;;;;;;;24.77;23.27;;;5.00;80.50;;;;;;5095710;28;20245;-72
2022/02/11 08:48:23;;;;;;;24.25;22.55;;;4.90;80.50;;;;;;5095710;28;20198;-72
2022/02/11 08:50:50;;;;;;;25.70;23.92;;;4.90;81.10;;;;;;5095066;28;20227;-72
2022/02/11 08:53:17;;;;;;;25.13;23.55;;;4.80;80.10;;;;;;5095222;28;20284;-72
2022/02/11 08:55:45;;;;;;;24.83;23.35;;;4.80;80.50;;;;;;5094322;28;20251;-72
2022/02/11 08:58:12;;;;;;;23.52;22.17;;;4.90;80.50;;;;;;5094789;28;20201;-72
2022/02/11 09:00:39;;;;;;;23.92;22.42;;;5.00;79.80;;;;;;5094528;28;20217;-72
2022/02/11 09:03:06;;;;;;;23.17;21.75;;;5.00;78.80;;;;;;5094960;28;20208;-72
2022/02/11 09:05:33;;;;;;;25.27;23.55;;;5.00;77.80;;;;;;5094677;28;20689;-72
2022/02/11 09:08:01;;;;;;;24.83;23.08;;;5.00;78.20;;;;;;5094824;28;20236;-72
2022/02/11 09:10:30;;;;;;;25.25;23.63;;;5.00;78.40;;;;;;5094463;28;20763;-72
2022/02/11 09:13:00;;;;;;;25.52;23.98;;;5.00;78.50;;;;;;5094576;28;20221;-72
2022/02/11 09:15:28;;;;;;;24.45;22.88;;;5.10;77.70;;;;;;5094628;28;20296;-72
2022/02/11 09:17:56;;;;;;;26.13;24.25;;;5.10;77.80;;;;;;5094375;28;20197;-72
2022/02/11 09:20:25;;;;;;;26.42;24.92;;;5.20;77.60;;;;;;5093970;28;20218;-72
2022/02/11 09:22:52;;;;;;;23.67;22.48;;;5.20;77.10;;;;;;5094486;28;20206;-72
2022/02/11 09:25:20;;;;;;;26.63;24.65;;;5.30;76.90;;;;;;5094174;28;20217;-72
2022/02/11 09:27:47;;;;;;;24.60;23.08;;;5.40;76.10;;;;;;5094363;28;20242;-73
2022/02/11 09:30:18;;;;;;;23.17;21.98;;;5.40;76.20;;;;;;5093971;28;20221;-72
2022/02/11 09:32:47;;;;;;;24.75;22.98;;;5.50;75.70;;;;;;5094368;28;20227;-72
2022/02/11 09:35:15;;;;;;;23.40;22.15;;;5.50;75.70;;;;;;5094294;28;20292;-72
2022/02/11 09:37:43;;;;;;;25.20;23.65;;;5.60;74.80;;;;;;5094124;28;20198;-72
2022/02/11 09:40:12;;;;;;;23.85;22.25;;;5.60;74.50;;;;;;5093757;28;20204;-72
2022/02/11 09:42:40;;;;;;;24.45;22.48;;;5.70;73.60;;;;;;5094016;28;20232;-73
2022/02/11 09:45:09;;;;;;;23.45;21.73;;;5.70;73.80;;;;;;5093922;28;20281;-72
2022/02/11 09:47:38;;;;;;;25.77;24.25;;;5.80;73.50;;;;;;5093856;28;20667;-72
2022/02/11 09:50:06;;;;;;;23.88;22.42;;;5.90;73.20;;;;;;5093635;28;20233;-72
2022/02/11 09:52:37;;;;;;;23.77;22.48;;;6.00;72.70;;;;;;5093831;28;20228;-72
2022/02/11 09:57:49;;;;;;;24.25;22.80;;;5.90;72.20;;;;;;5093893;28;20291;-72
2022/02/11 10:00:17;;;;;;;24.42;23.13;;;6.00;72.80;;;;;;5093429;28;20329;-72
2022/02/11 10:02:52;;;;;;;24.50;23.05;;;6.00;72.80;;;;;;5093647;28;20589;-72
2022/02/11 10:05:25;;;;;;;23.90;22.40;;;6.10;72.30;;;;;;5093400;28;20206;-72
2022/02/11 10:07:53;;;;;;;25.40;23.67;;;6.10;72.20;;;;;;5092681;28;20210;-72
2022/02/11 10:10:38;;;;;;;24.35;22.48;;;6.00;70.80;;;;;;5093218;28;20222;-72
2022/02/11 10:13:07;;;;;;;23.95;22.55;;;6.00;71.10;;;;;;5093383;28;20218;-72
2022/02/11 10:15:37;;;;;;;23.33;21.63;;;5.80;71.40;;;;;;5093222;28;20575;-72
2022/02/11 10:18:06;;;;;;;23.80;22.23;;;5.80;72.00;;;;;;5093563;28;20567;-72
2022/02/11 10:20:38;;;;;;;23.70;22.30;;;6.00;72.20;;;;;;5092698;28;20218;-72
2022/02/11 10:23:13;;;;;;;24.15;22.67;;;6.10;72.40;;;;;;5093258;28;20190;-72
2022/02/11 10:26:05;;;;;;;25.02;23.33;;;6.20;71.70;;;;;;5093019;28;20196;-72
2022/02/11 10:28:36;;;;;;;24.95;23.50;;;6.40;71.40;;;;;;5093223;28;20210;-72
2022/02/11 10:31:15;;;;;;;24.73;23.08;;;6.50;70.40;;;;;;5092718;28;20218;-72
2022/02/11 10:34:04;;;;;;;24.38;22.98;;;6.50;70.10;;;;;;5093276;28;20559;-72
2022/02/11 10:36:33;;;;;;;23.30;21.85;;;6.50;70.10;;;;;;5093017;28;20215;-72
2022/02/11 10:39:07;;;;;;;23.42;21.98;;;6.70;70.10;;;;;;5093040;28;20254;-72
2022/02/11 10:41:36;;;;;;;23.50;21.67;;;6.90;69.50;;;;;;5093188;28;20550;-72
2022/02/11 10:44:06;;;;;;;24.05;22.65;;;6.70;68.70;;;;;;5092924;28;20199;-72
2022/02/11 10:46:37;;;;;;;24.27;22.90;;;6.70;69.40;;;;;;5092807;28;20201;-72
2022/02/11 10:49:07;;;;;;;23.42;21.73;;;6.70;68.80;;;;;;5092835;28;20657;-72
2022/02/11 10:51:39;;;;;;;23.60;22.23;;;6.60;68.50;;;;;;5092653;28;20387;-72
2022/02/11 10:54:26;;;;;;;23.67;22.48;;;6.50;69.20;;;;;;5092858;28;20687;-72
2022/02/11 10:56:54;;;;;;;24.00;22.38;;;6.60;68.90;;;;;;5092767;28;20285;-72
2022/02/11 10:59:28;;;;;;;23.67;22.33;;;6.80;68.90;;;;;;5092516;28;20726;-72
2022/02/11 11:01:57;;;;;;;24.48;22.98;;;6.70;68.20;;;;;;5092745;28;20303;-72
2022/02/11 11:04:26;;;;;;;23.38;21.77;;;6.70;68.20;;;;;;5092817;28;20199;-72
2022/02/11 11:06:54;;;;;;;23.45;22.15;;;6.80;68.20;;;;;;5092548;28;20305;-73
2022/02/11 11:09:25;;;;;;;24.35;22.85;;;6.80;67.80;;;;;;5092398;28;20202;-72
2022/02/11 11:11:53;;;;;;;22.63;21.33;;;6.80;67.40;;;;;;5092485;28;20509;-73
2022/02/11 11:14:21;;;;;;;22.10;20.77;;;6.80;67.40;;;;;;5092596;28;20205;-72
2022/02/11 11:16:49;;;;;;;23.58;22.15;;;6.60;67.90;;;;;;5092600;28;20206;-73
2022/02/11 11:19:17;;;;;;;23.88;22.30;;;6.70;68.30;;;;;;5092019;28;20209;-73
2022/02/11 11:21:48;;;;;;;23.67;22.38;;;6.70;68.40;;;;;;5092600;28;20295;-73
2022/02/11 11:24:17;;;;;;;23.25;21.85;;;6.90;67.60;;;;;;5092460;28;20202;-72
2022/02/11 11:26:46;;;;;;;22.88;21.52;;;6.80;67.70;;;;;;5092589;28;20288;-73
2022/02/11 11:29:15;;;;;;;25.90;24.52;;;6.80;67.90;;;;;;5092355;28;20247;-73
2022/02/11 11:31:53;;;;;;;23.35;21.80;;;6.70;68.40;;;;;;5092506;28;20268;-73
2022/02/11 11:34:28;;;;;;;23.60;21.95;;;6.90;69.00;;;;;;5092480;28;20229;-73
2022/02/11 11:37:03;;;;;;;23.33;21.63;;;7.00;67.70;;;;;;5092405;28;20226;-73
2022/02/11 11:39:30;;;;;;;24.58;23.17;;;7.20;67.70;;;;;;5092251;28;20243;-73
2022/02/11 11:42:06;;;;;;;23.40;22.15;;;7.40;67.90;;;;;;5092483;28;20208;-72
2022/02/11 11:44:42;;;;;;;27.08;25.70;;;7.30;66.50;;;;;;5092415;28;20204;-73
2022/02/11 11:47:16;;;;;;;24.05;22.52;;;7.30;66.50;;;;;;5092340;28;20679;-73
2022/02/11 11:49:51;;;;;;;24.92;23.40;;;7.50;66.30;;;;;;5092171;28;20209;-72
2022/02/11 11:52:20;;;;;;;24.05;22.23;;;7.50;66.00;;;;;;5092138;28;20233;-73
2022/02/11 11:54:47;;;;;;;24.23;22.90;;;7.40;66.80;;;;;;5092328;28;20218;-73
2022/02/11 11:57:17;;;;;;;23.52;22.02;;;7.30;66.20;;;;;;5092086;28;20560;-72
2022/02/11 11:59:46;;;;;;;23.92;22.63;;;7.00;66.80;;;;;;5091879;28;20731;-72
2022/02/11 12:02:16;;;;;;;23.55;21.65;;;6.50;67.20;;;;;;5092121;28;20215;-72
2022/02/11 12:04:52;;;;;;;22.95;21.27;;;6.60;66.30;;;;;;5091945;28;20238;-73
2022/02/11 12:07:21;;;;;;;23.77;22.48;;;6.60;65.80;;;;;;5092204;28;20201;-73
2022/02/11 12:09:49;;;;;;;24.60;23.23;;;6.50;66.80;;;;;;5091812;28;20209;-73
2022/02/11 12:12:19;;;;;;;24.63;23.08;;;6.70;66.00;;;;;;5091750;28;20326;-73
2022/02/11 12:14:48;;;;;;;24.08;22.30;;;7.10;65.90;;;;;;5092087;28;20199;-72
2022/02/11 12:17:16;;;;;;;24.33;22.83;;;7.50;64.40;;;;;;5092037;28;20263;-72
2022/02/11 12:19:45;;;;;;;25.02;23.30;;;7.80;63.60;;;;;;5091641;28;20679;-72
2022/02/11 12:22:12;;;;;;;24.80;23.10;;;8.00;62.40;;;;;;5091829;28;20265;-73
2022/02/11 12:27:31;;;;;;;23.95;22.45;;;8.20;62.20;;;;;;5091936;28;20268;-73
2022/02/11 12:30:00;;;;;;;24.52;22.83;;;8.10;61.50;;;;;;5092189;28;20192;-73
2022/02/11 12:32:28;;;;;;;22.42;21.23;;;8.20;61.10;;;;;;5095435;28;20251;-73
2022/02/11 12:34:57;;;;;;;23.05;21.75;;;8.30;59.30;;;;;;5095190;28;20682;-73
2022/02/11 12:37:26;;;;;;;23.30;22.00;;;8.30;58.90;;;;;;5095190;28;20195;-72
2022/02/11 12:40:08;;;;;;;23.25;22.05;;;8.30;59.00;;;;;;5095013;28;20201;-72
2022/02/11 12:42:36;;;;;;;24.55;23.02;;;8.30;58.70;;;;;;5095252;28;20661;-73
2022/02/11 12:45:05;;;;;;;23.00;21.80;;;8.00;60.20;;;;;;5095338;28;20276;-72
2022/02/11 12:47:33;;;;;;;23.95;22.65;;;8.00;60.60;;;;;;5095022;28;20205;-72
2022/02/11 12:50:01;;;;;;;25.02;23.50;;;7.90;59.70;;;;;;5094731;28;20253;-72
2022/02/11 12:52:30;;;;;;;23.55;21.95;;;7.70;60.80;;;;;;5094992;28;20231;-73
2022/02/11 12:55:02;;;;;;;23.25;21.75;;;7.80;61.30;;;;;;5094972;28;20209;-72
2022/02/11 12:57:32;;;;;;;23.45;21.67;;;8.00;60.60;;;;;;5094893;28;20592;-73
2022/02/11 13:00:00;;;;;;;25.33;23.83;;;7.90;60.90;;;;;;5094500;28;20202;-72
2022/02/11 13:02:29;;;;;;;24.70;23.48;;;7.90;60.50;;;;;;5094933;28;20569;-73
2022/02/11 13:05:09;;;;;;;24.00;22.42;;;7.70;60.10;;;;;;5094638;28;20242;-72
2022/02/11 13:07:38;;;;;;;24.33;22.23;;;7.70;61.40;;;;;;5094853;28;20211;-72
2022/02/11 13:10:07;;;;;;;23.13;21.67;;;7.70;60.70;;;;;;5094393;28;20290;-72
2022/02/11 13:12:41;;;;;;;23.17;21.88;;;7.80;61.80;;;;;;5094546;28;20305;-72
2022/02/11 13:15:10;;;;;;;24.50;23.10;;;7.90;62.50;;;;;;5094618;28;20687;-72
2022/02/11 13:17:37;;;;;;;24.55;23.15;;;7.50;62.40;;;;;;5094474;28;20290;-73
2022/02/11 13:20:07;;;;;;;22.67;21.23;;;7.40;63.60;;;;;;5093965;28;20310;-72
2022/02/11 13:22:34;;;;;;;24.65;23.20;;;7.40;63.40;;;;;;5094715;28;20632;-73
2022/02/11 13:25:01;;;;;;;24.77;23.13;;;7.30;64.00;;;;;;5094248;28;20201;-72
2022/02/11 13:27:44;;;;;;;26.35;24.85;;;7.20;63.10;;;;;;5094317;28;20192;-73
2022/02/11 13:30:13;;;;;;;24.15;22.65;;;7.10;64.00;;;;;;5094099;28;20547;-73
2022/02/11 13:32:40;;;;;;;23.98;22.48;;;7.10;63.30;;;;;;5094108;28;20308;-73
2022/02/11 13:35:09;;;;;;;22.85;21.55;;;7.00;64.30;;;;;;5094008;28;20202;-73
2022/02/11 13:37:41;;;;;;;21.50;20.40;;;7.00;64.60;;;;;;5094045;28;20655;-73
2022/02/11 13:40:16;;;;;;;23.73;22.33;;;7.10;64.50;;;;;;5093934;28;20199;-73
2022/02/11 13:42:55;;;;;;;23.88;22.38;;;7.00;65.00;;;;;;5094061;28;20201;-73
2022/02/11 13:45:22;;;;;;;22.77;21.48;;;7.10;64.80;;;;;;5094169;28;20202;-72
2022/02/11 13:48:07;;;;;;;23.92;22.52;;;7.10;63.60;;;;;;5093954;28;20199;-72
2022/02/11 13:50:49;;;;;;;23.58;22.30;;;7.20;62.50;;;;;;5093728;28;20214;-72
2022/02/11 13:53:27;;;;;;;23.92;22.55;;;7.10;63.70;;;;;;5093760;28;20223;-72
2022/02/11 13:55:54;;;;;;;23.15;21.85;;;7.20;64.20;;;;;;5093850;28;20281;-73
2022/02/11 13:58:23;;;;;;;23.30;21.70;;;7.10;64.10;;;;;;5093689;28;20200;-73
2022/02/11 14:00:50;;;;;;;24.58;23.17;;;7.30;64.10;;;;;;5093570;28;20595;-73
2022/02/11 14:03:21;;;;;;;23.05;21.73;;;7.40;63.50;;;;;;5093703;28;20651;-73
2022/02/11 14:05:50;;;;;;;24.15;22.55;;;7.50;63.90;;;;;;5093571;28;20624;-73
2022/02/11 14:08:19;;;;;;;24.10;22.50;;;7.60;63.60;;;;;;5093436;28;20199;-73
2022/02/11 14:10:46;;;;;;;23.17;21.88;;;7.80;63.50;;;;;;5093265;28;20222;-73
2022/02/11 14:13:14;;;;;;;23.90;22.60;;;7.60;63.90;;;;;;5093321;28;20215;-73
2022/02/11 14:15:43;;;;;;;24.95;23.55;;;7.70;63.90;;;;;;5093392;28;20249;-73
2022/02/11 14:18:10;;;;;;;22.80;21.50;;;7.50;64.10;;;;;;5093396;28;20586;-73
2022/02/11 14:20:38;;;;;;;23.02;21.58;;;7.50;63.90;;;;;;5092827;28;20223;-73
2022/02/11 14:23:13;;;;;;;24.73;23.13;;;7.50;63.80;;;;;;5093304;28;20206;-73
2022/02/11 14:25:42;;;;;;;23.20;22.00;;;7.40;63.60;;;;;;5092997;28;20615;-73
2022/02/11 14:28:10;;;;;;;23.55;22.10;;;7.40;63.40;;;;;;5093193;28;20206;-73
2022/02/11 14:30:39;;;;;;;24.15;22.90;;;7.40;63.30;;;;;;5092890;28;20612;-73
2022/02/11 14:33:07;;;;;;;22.77;21.55;;;7.40;63.10;;;;;;5093044;28;20211;-73
2022/02/11 14:35:34;;;;;;;24.55;23.25;;;7.40;62.80;;;;;;5092889;28;20719;-73
2022/02/11 14:38:01;;;;;;;23.58;22.27;;;7.50;62.70;;;;;;5092878;28;20205;-73
2022/02/11 14:40:28;;;;;;;23.65;22.15;;;7.30;62.80;;;;;;5092645;28;20308;-72
2022/02/11 14:42:55;;;;;;;22.25;21.00;;;7.40;63.10;;;;;;5092975;28;20195;-73
2022/02/11 14:45:22;;;;;;;24.70;23.10;;;7.50;62.40;;;;;;5093009;28;20194;-73
2022/02/11 14:47:49;;;;;;;24.27;22.45;;;7.60;62.50;;;;;;5093044;28;20198;-73
2022/02/11 14:50:17;;;;;;;22.95;21.65;;;7.70;62.30;;;;;;5092616;28;20221;-73
2022/02/11 14:52:44;;;;;;;22.67;21.48;;;7.80;62.30;;;;;;5092470;28;20247;-73
2022/02/11 14:55:11;;;;;;;23.13;21.90;;;7.90;60.90;;;;;;5092860;28;20238;-73
2022/02/11 14:57:38;;;;;;;24.50;22.90;;;7.80;60.50;;;;;;5092780;28;20191;-73
2022/02/11 15:00:05;;;;;;;24.40;22.60;;;7.80;61.10;;;;;;5092545;28;20206;-73
2022/02/11 15:02:33;;;;;;;24.60;22.85;;;7.90;61.70;;;;;;5092762;28;20205;-73
2022/02/11 15:05:00;;;;;;;26.30;24.45;;;8.00;61.90;;;;;;5092315;28;20203;-73
2022/02/11 15:07:28;;;;;;;23.63;22.17;;;8.00;62.00;;;;;;5092615;28;20244;-73
2022/02/11 15:09:57;;;;;;;23.80;22.30;;;8.10;62.20;;;;;;5092272;28;20533;-73
2022/02/11 15:12:23;;;;;;;25.52;23.75;;;8.10;62.60;;;;;;5092699;28;20293;-73
2022/02/11 15:14:50;;;;;;;23.95;22.45;;;8.10;62.70;;;;;;5092525;28;20216;-73
2022/02/11 15:17:17;;;;;;;24.23;22.63;;;8.00;62.20;;;;;;5092422;28;20292;-73
2022/02/11 15:19:44;;;;;;;23.73;22.13;;;7.70;63.20;;;;;;5092171;28;20203;-73
2022/02/11 15:22:13;;;;;;;22.52;21.23;;;7.30;63.10;;;;;;5092742;28;20310;-73
2022/02/11 15:24:47;;;;;;;24.85;23.20;;;7.10;63.40;;;;;;5092354;28;20265;-73
2022/02/11 15:27:14;;;;;;;23.55;22.10;;;7.00;63.00;;;;;;5092866;28;20198;-73
2022/02/11 15:29:42;;;;;;;25.52;24.08;;;7.00;63.60;;;;;;5092218;28;20202;-72
2022/02/11 15:32:10;;;;;;;23.00;21.60;;;7.00;63.60;;;;;;5092449;28;20218;-72
2022/02/11 15:34:37;;;;;;;23.55;22.35;;;7.20;63.40;;;;;;5092365;28;20215;-72
2022/02/11 15:37:05;;;;;;;23.10;21.60;;;7.20;62.50;;;;;;5092397;28;20732;-72
2022/02/11 15:39:33;;;;;;;26.13;24.35;;;7.20;62.40;;;;;;5092178;28;20331;-72
2022/02/11 15:42:01;;;;;;;22.35;20.95;;;7.20;62.50;;;;;;5092302;28;20222;-72
2022/02/11 15:44:28;;;;;;;22.92;21.42;;;7.20;62.30;;;;;;5092416;28;20293;-72
2022/02/11 15:46:55;;;;;;;24.88;23.38;;;7.00;62.00;;;;;;5092322;28;20660;-72
2022/02/11 15:49:23;;;;;;;23.45;21.95;;;6.80;62.60;;;;;;5092031;28;20292;-72
2022/02/11 15:51:49;;;;;;;25.05;23.70;;;6.80;63.30;;;;;;5092050;28;20227;-72
2022/02/11 15:54:16;;;;;;;23.50;21.83;;;6.80;63.50;;;;;;5092045;28;20322;-73
2022/02/11 15:56:43;;;;;;;24.08;22.48;;;6.90;63.60;;;;;;5092145;28;20237;-73
2022/02/11 15:59:11;;;;;;;23.98;22.52;;;6.90;63.80;;;;;;5092016;28;20206;-73
2022/02/11 16:01:38;;;;;;;24.92;23.42;;;6.90;63.40;;;;;;5092280;28;20306;-72
2022/02/11 16:04:06;;;;;;;24.13;22.63;;;6.70;63.30;;;;;;5092267;28;20199;-72